Rosebush, Michigan
Current Conditions -  °F | °C
As of 10:39 PM on Friday 31 Oct 2014 (Local Time) from KMOP Reporting Station
Overcast Overcast  
Wind Chill: 22°   Ceiling: 3200
Heat Index: 33°   Visibility: 10mi
Dew Point: 22°   Wind: 17mph
Humidity: 65%   Direction: 360°N
Pressure: 30.27"   Gusts: 25mph
Location:  43.7°N, 84.77°W
Report Text: KMOP 010239Z AUTO 36015G22KT 10SM OVC032 00/M06 A3027 RMK AO2 T00031056
Loading
Personal Weather Stations






























Interactive Weather Map
Tropical Storm Tracking
New forecast layout! Learn more

10-Day Weather Forecast

Advertisements
Track Severe Weather on mobile